logo
Search for airport 
image banner adimage banner adimage banner ad
image banner ad

CCG6 - Cape George

Located in St. Peters, Canada

ICAO - , IATA -

Data provided by Airmate  

General information

Coordinates: N45°43'50" W60°48'38"
Elevation is 12 feet MSL.
Magnetic variation is -18.0167° East
View others Airports in Nova Scotia

Operational data

Special qualification required
Current time UTC:
Current local time:
Weather at : CYPD - Port Hawkesbury ( 44 km )
METAR: CYPD 230500Z AUTO 35004KT 9SM CLR M03/M06 A3009 RMK SLP195
View NOTAMs / SUP AIP / TFR affecting this airport [VIEW]
Communications frequencies: [VIEW]

Runways:

RWY identifierQFULength (ft)Width (ft)SurfaceLDA (ft)
W00WATER

Airport contact information

Address: St. Peters Canada

Satellite view of CCG6